Island Falls, Canada
Current Conditions -  °F | °C
As of 5:00 PM on Friday 24 Oct 2014 (Local Time) from CYFO Reporting Station
Overcast Overcast  
Wind Chill: 35°   Ceiling: 2500
Heat Index: 43°   Visibility: 15mi
Dew Point: 34°   Wind: 15mph
Humidity: 70%   Direction: 260°W
Pressure: 29.57"   Gusts: 24mph
Location:  55.53°N, 102.33°W
Report Text: CYFO 242300Z 26013G21KT 15SM OVC025 06/01 A2957 RMK SC8 LAST OBS / NEXT 251100UTC SLP023
Loading
Personal Weather Stations






























Interactive Weather Map
Tropical Storm Tracking
New forecast layout! Learn more

10-Day Weather Forecast

Advertisements
Track Severe Weather on mobile